sensor_id;sensor_type;location;lat;lon;timestamp;P1;durP1;ratioP1;P2;durP2;ratioP2
7645;SDS011;3864;48.180;14.178;2023-10-31T00:01:54;6.22;;;4.03;;
7645;SDS011;3864;48.180;14.178;2023-10-31T00:04:21;5.30;;;3.85;;
7645;SDS011;3864;48.180;14.178;2023-10-31T00:06:49;6.30;;;4.13;;
7645;SDS011;3864;48.180;14.178;2023-10-31T00:09:17;5.35;;;4.13;;
7645;SDS011;3864;48.180;14.178;2023-10-31T00:11:44;6.70;;;5.25;;
7645;SDS011;3864;48.180;14.178;2023-10-31T00:14:11;6.68;;;5.05;;
7645;SDS011;3864;48.180;14.178;2023-10-31T00:16:38;7.82;;;5.30;;
7645;SDS011;3864;48.180;14.178;2023-10-31T00:19:05;8.18;;;5.43;;
7645;SDS011;3864;48.180;14.178;2023-10-31T00:21:32;9.73;;;6.10;;
7645;SDS011;3864;48.180;14.178;2023-10-31T00:23:59;8.20;;;5.32;;
7645;SDS011;3864;48.180;14.178;2023-10-31T00:26:29;8.57;;;5.63;;
7645;SDS011;3864;48.180;14.178;2023-10-31T00:28:56;7.57;;;5.97;;
7645;SDS011;3864;48.180;14.178;2023-10-31T00:31:23;7.00;;;5.88;;
7645;SDS011;3864;48.180;14.178;2023-10-31T00:33:50;7.40;;;5.82;;
7645;SDS011;3864;48.180;14.178;2023-10-31T00:36:17;7.35;;;6.18;;
7645;SDS011;3864;48.180;14.178;2023-10-31T00:38:44;8.98;;;5.50;;
7645;SDS011;3864;48.180;14.178;2023-10-31T00:41:11;6.05;;;4.20;;
7645;SDS011;3864;48.180;14.178;2023-10-31T00:43:39;6.28;;;4.40;;
7645;SDS011;3864;48.180;14.178;2023-10-31T00:46:07;6.63;;;4.10;;
7645;SDS011;3864;48.180;14.178;2023-10-31T00:48:34;4.90;;;3.38;;
7645;SDS011;3864;48.180;14.178;2023-10-31T00:51:02;5.53;;;3.42;;
7645;SDS011;3864;48.180;14.178;2023-10-31T00:53:29;5.15;;;3.20;;
7645;SDS011;3864;48.180;14.178;2023-10-31T00:55:57;6.85;;;3.10;;
7645;SDS011;3864;48.180;14.178;2023-10-31T00:58:24;4.50;;;2.97;;
7645;SDS011;3864;48.180;14.178;2023-10-31T01:00:52;7.57;;;3.17;;
7645;SDS011;3864;48.180;14.178;2023-10-31T01:03:19;5.70;;;3.40;;
7645;SDS011;3864;48.180;14.178;2023-10-31T01:05:46;4.80;;;3.55;;
7645;SDS011;3864;48.180;14.178;2023-10-31T01:08:14;5.28;;;3.80;;
7645;SDS011;3864;48.180;14.178;2023-10-31T01:10:41;6.80;;;4.78;;
7645;SDS011;3864;48.180;14.178;2023-10-31T01:13:09;5.22;;;4.32;;
7645;SDS011;3864;48.180;14.178;2023-10-31T01:15:36;5.70;;;4.60;;
7645;SDS011;3864;48.180;14.178;2023-10-31T01:18:05;5.30;;;4.57;;
7645;SDS011;3864;48.180;14.178;2023-10-31T01:20:32;7.13;;;4.35;;
7645;SDS011;3864;48.180;14.178;2023-10-31T01:22:59;7.50;;;5.50;;
7645;SDS011;3864;48.180;14.178;2023-10-31T01:25:26;7.00;;;4.88;;
7645;SDS011;3864;48.180;14.178;2023-10-31T01:27:53;7.22;;;4.88;;
7645;SDS011;3864;48.180;14.178;2023-10-31T01:30:20;7.68;;;5.13;;
7645;SDS011;3864;48.180;14.178;2023-10-31T01:32:47;8.43;;;4.95;;
7645;SDS011;3864;48.180;14.178;2023-10-31T01:35:16;7.45;;;4.80;;
7645;SDS011;3864;48.180;14.178;2023-10-31T01:37:43;8.73;;;5.22;;
7645;SDS011;3864;48.180;14.178;2023-10-31T01:40:12;7.90;;;5.22;;
7645;SDS011;3864;48.180;14.178;2023-10-31T01:42:39;7.18;;;4.85;;
7645;SDS011;3864;48.180;14.178;2023-10-31T01:45:07;7.63;;;4.53;;
7645;SDS011;3864;48.180;14.178;2023-10-31T01:47:35;7.47;;;5.20;;
7645;SDS011;3864;48.180;14.178;2023-10-31T01:50:02;6.88;;;5.28;;
7645;SDS011;3864;48.180;14.178;2023-10-31T01:52:31;8.70;;;5.50;;
7645;SDS011;3864;48.180;14.178;2023-10-31T01:54:58;8.45;;;5.65;;
7645;SDS011;3864;48.180;14.178;2023-10-31T01:57:26;8.02;;;5.63;;
7645;SDS011;3864;48.180;14.178;2023-10-31T01:59:53;8.07;;;5.68;;
7645;SDS011;3864;48.180;14.178;2023-10-31T02:02:20;10.10;;;5.97;;
7645;SDS011;3864;48.180;14.178;2023-10-31T02:04:49;9.88;;;6.97;;
7645;SDS011;3864;48.180;14.178;2023-10-31T02:07:16;10.02;;;6.60;;
7645;SDS011;3864;48.180;14.178;2023-10-31T02:09:45;9.20;;;6.55;;
7645;SDS011;3864;48.180;14.178;2023-10-31T02:12:22;9.65;;;6.45;;
7645;SDS011;3864;48.180;14.178;2023-10-31T02:14:57;9.73;;;6.93;;
7645;SDS011;3864;48.180;14.178;2023-10-31T02:17:24;9.73;;;7.53;;
7645;SDS011;3864;48.180;14.178;2023-10-31T02:19:51;8.23;;;6.57;;
7645;SDS011;3864;48.180;14.178;2023-10-31T02:22:20;8.20;;;5.65;;
7645;SDS011;3864;48.180;14.178;2023-10-31T02:24:47;6.88;;;5.00;;
7645;SDS011;3864;48.180;14.178;2023-10-31T02:27:14;7.30;;;5.18;;
7645;SDS011;3864;48.180;14.178;2023-10-31T02:29:41;6.82;;;4.60;;
7645;SDS011;3864;48.180;14.178;2023-10-31T02:32:08;5.55;;;4.00;;
7645;SDS011;3864;48.180;14.178;2023-10-31T02:34:35;5.03;;;3.80;;
7645;SDS011;3864;48.180;14.178;2023-10-31T02:37:02;4.68;;;3.75;;
7645;SDS011;3864;48.180;14.178;2023-10-31T02:39:32;7.13;;;4.47;;
7645;SDS011;3864;48.180;14.178;2023-10-31T02:41:59;6.32;;;4.03;;
7645;SDS011;3864;48.180;14.178;2023-10-31T02:44:26;4.75;;;3.63;;
7645;SDS011;3864;48.180;14.178;2023-10-31T02:46:53;4.72;;;3.58;;
7645;SDS011;3864;48.180;14.178;2023-10-31T02:49:20;4.78;;;3.25;;
7645;SDS011;3864;48.180;14.178;2023-10-31T02:51:48;4.97;;;3.00;;
7645;SDS011;3864;48.180;14.178;2023-10-31T02:54:15;4.05;;;2.35;;
7645;SDS011;3864;48.180;14.178;2023-10-31T02:56:43;3.20;;;2.50;;
7645;SDS011;3864;48.180;14.178;2023-10-31T02:59:10;3.60;;;2.17;;
7645;SDS011;3864;48.180;14.178;2023-10-31T03:01:37;3.30;;;2.10;;
7645;SDS011;3864;48.180;14.178;2023-10-31T03:04:04;3.22;;;1.92;;
7645;SDS011;3864;48.180;14.178;2023-10-31T03:06:31;2.60;;;1.60;;
7645;SDS011;3864;48.180;14.178;2023-10-31T03:08:58;2.88;;;1.80;;
7645;SDS011;3864;48.180;14.178;2023-10-31T03:11:26;2.03;;;1.50;;
7645;SDS011;3864;48.180;14.178;2023-10-31T03:13:55;2.78;;;1.50;;
7645;SDS011;3864;48.180;14.178;2023-10-31T03:16:22;2.40;;;1.55;;
7645;SDS011;3864;48.180;14.178;2023-10-31T03:18:50;2.10;;;1.48;;
7645;SDS011;3864;48.180;14.178;2023-10-31T03:21:17;1.77;;;1.02;;
7645;SDS011;3864;48.180;14.178;2023-10-31T03:23:46;2.35;;;1.40;;
7645;SDS011;3864;48.180;14.178;2023-10-31T03:26:14;1.95;;;1.23;;
7645;SDS011;3864;48.180;14.178;2023-10-31T03:28:42;1.60;;;1.20;;
7645;SDS011;3864;48.180;14.178;2023-10-31T03:31:11;1.85;;;1.20;;
7645;SDS011;3864;48.180;14.178;2023-10-31T03:33:39;2.13;;;1.50;;
7645;SDS011;3864;48.180;14.178;2023-10-31T03:36:07;2.20;;;1.38;;
7645;SDS011;3864;48.180;14.178;2023-10-31T03:38:34;1.38;;;1.15;;
7645;SDS011;3864;48.180;14.178;2023-10-31T03:41:02;2.03;;;1.40;;
7645;SDS011;3864;48.180;14.178;2023-10-31T03:43:29;1.88;;;1.40;;
7645;SDS011;3864;48.180;14.178;2023-10-31T03:45:57;2.65;;;1.42;;
7645;SDS011;3864;48.180;14.178;2023-10-31T03:48:25;2.88;;;1.52;;
7645;SDS011;3864;48.180;14.178;2023-10-31T03:50:53;4.47;;;1.40;;
7645;SDS011;3864;48.180;14.178;2023-10-31T03:53:20;1.85;;;1.30;;
7645;SDS011;3864;48.180;14.178;2023-10-31T03:55:47;2.00;;;1.33;;
7645;SDS011;3864;48.180;14.178;2023-10-31T03:58:43;1.33;;;1.08;;
7645;SDS011;3864;48.180;14.178;2023-10-31T04:01:11;0.93;;;0.77;;
7645;SDS011;3864;48.180;14.178;2023-10-31T04:03:39;0.68;;;0.68;;
7645;SDS011;3864;48.180;14.178;2023-10-31T04:06:06;0.68;;;0.68;;
7645;SDS011;3864;48.180;14.178;2023-10-31T04:08:33;0.80;;;0.80;;
7645;SDS011;3864;48.180;14.178;2023-10-31T04:11:00;1.40;;;1.00;;
7645;SDS011;3864;48.180;14.178;2023-10-31T04:13:27;2.85;;;1.13;;
7645;SDS011;3864;48.180;14.178;2023-10-31T04:15:54;0.70;;;0.70;;
7645;SDS011;3864;48.180;14.178;2023-10-31T04:18:21;0.90;;;0.82;;
7645;SDS011;3864;48.180;14.178;2023-10-31T04:20:50;0.65;;;0.60;;
7645;SDS011;3864;48.180;14.178;2023-10-31T04:23:17;0.60;;;0.60;;
7645;SDS011;3864;48.180;14.178;2023-10-31T04:25:44;0.65;;;0.57;;
7645;SDS011;3864;48.180;14.178;2023-10-31T04:28:11;0.65;;;0.65;;
7645;SDS011;3864;48.180;14.178;2023-10-31T04:30:39;0.77;;;0.60;;
7645;SDS011;3864;48.180;14.178;2023-10-31T04:33:05;1.00;;;0.75;;
7645;SDS011;3864;48.180;14.178;2023-10-31T04:35:32;0.80;;;0.80;;
7645;SDS011;3864;48.180;14.178;2023-10-31T04:38:01;0.80;;;0.80;;
7645;SDS011;3864;48.180;14.178;2023-10-31T04:40:28;0.55;;;0.55;;
7645;SDS011;3864;48.180;14.178;2023-10-31T04:42:55;1.95;;;0.90;;
7645;SDS011;3864;48.180;14.178;2023-10-31T04:45:22;0.65;;;0.60;;
7645;SDS011;3864;48.180;14.178;2023-10-31T04:47:49;1.90;;;0.90;;
7645;SDS011;3864;48.180;14.178;2023-10-31T04:50:16;1.15;;;0.70;;
7645;SDS011;3864;48.180;14.178;2023-10-31T04:52:43;1.20;;;0.60;;
7645;SDS011;3864;48.180;14.178;2023-10-31T04:55:11;0.60;;;0.60;;
7645;SDS011;3864;48.180;14.178;2023-10-31T04:57:38;1.30;;;0.88;;
7645;SDS011;3864;48.180;14.178;2023-10-31T05:00:06;1.40;;;0.90;;
7645;SDS011;3864;48.180;14.178;2023-10-31T05:02:34;1.58;;;1.05;;
7645;SDS011;3864;48.180;14.178;2023-10-31T05:05:01;1.38;;;1.08;;
7645;SDS011;3864;48.180;14.178;2023-10-31T05:07:28;1.10;;;1.00;;
7645;SDS011;3864;48.180;14.178;2023-10-31T05:09:55;0.93;;;0.70;;
7645;SDS011;3864;48.180;14.178;2023-10-31T05:12:24;1.02;;;0.82;;
7645;SDS011;3864;48.180;14.178;2023-10-31T05:14:51;2.55;;;0.98;;
7645;SDS011;3864;48.180;14.178;2023-10-31T05:17:18;0.93;;;0.80;;
7645;SDS011;3864;48.180;14.178;2023-10-31T05:19:45;0.95;;;0.90;;
7645;SDS011;3864;48.180;14.178;2023-10-31T05:22:12;0.45;;;0.45;;
7645;SDS011;3864;48.180;14.178;2023-10-31T05:24:39;1.15;;;0.90;;
7645;SDS011;3864;48.180;14.178;2023-10-31T05:27:06;1.35;;;0.90;;
7645;SDS011;3864;48.180;14.178;2023-10-31T05:29:35;0.82;;;0.82;;
7645;SDS011;3864;48.180;14.178;2023-10-31T05:32:05;1.25;;;0.90;;
7645;SDS011;3864;48.180;14.178;2023-10-31T05:34:32;0.77;;;0.63;;
7645;SDS011;3864;48.180;14.178;2023-10-31T05:37:00;0.68;;;0.65;;
7645;SDS011;3864;48.180;14.178;2023-10-31T05:39:27;1.17;;;0.70;;
7645;SDS011;3864;48.180;14.178;2023-10-31T05:41:54;1.35;;;0.95;;
7645;SDS011;3864;48.180;14.178;2023-10-31T05:44:21;1.52;;;0.90;;
7645;SDS011;3864;48.180;14.178;2023-10-31T05:46:49;1.45;;;0.80;;
7645;SDS011;3864;48.180;14.178;2023-10-31T05:49:16;2.03;;;1.08;;
7645;SDS011;3864;48.180;14.178;2023-10-31T05:51:44;1.08;;;0.93;;
7645;SDS011;3864;48.180;14.178;2023-10-31T05:54:11;1.10;;;1.00;;
7645;SDS011;3864;48.180;14.178;2023-10-31T05:56:38;1.92;;;1.40;;
7645;SDS011;3864;48.180;14.178;2023-10-31T05:59:05;3.85;;;1.35;;
7645;SDS011;3864;48.180;14.178;2023-10-31T06:01:32;2.90;;;1.95;;
7645;SDS011;3864;48.180;14.178;2023-10-31T06:04:01;2.17;;;1.40;;
7645;SDS011;3864;48.180;14.178;2023-10-31T06:06:29;3.03;;;1.52;;
7645;SDS011;3864;48.180;14.178;2023-10-31T06:08:57;2.33;;;1.20;;
7645;SDS011;3864;48.180;14.178;2023-10-31T06:11:25;1.60;;;1.02;;
7645;SDS011;3864;48.180;14.178;2023-10-31T06:13:52;1.58;;;1.08;;
7645;SDS011;3864;48.180;14.178;2023-10-31T06:16:18;1.55;;;1.00;;
7645;SDS011;3864;48.180;14.178;2023-10-31T06:18:46;2.28;;;1.30;;
7645;SDS011;3864;48.180;14.178;2023-10-31T06:21:14;1.35;;;1.17;;
7645;SDS011;3864;48.180;14.178;2023-10-31T06:23:41;1.80;;;1.17;;
7645;SDS011;3864;48.180;14.178;2023-10-31T06:26:11;1.90;;;1.30;;
7645;SDS011;3864;48.180;14.178;2023-10-31T06:28:38;1.70;;;1.10;;
7645;SDS011;3864;48.180;14.178;2023-10-31T06:31:05;1.38;;;1.20;;
7645;SDS011;3864;48.180;14.178;2023-10-31T06:33:32;1.25;;;1.10;;
7645;SDS011;3864;48.180;14.178;2023-10-31T06:35:59;1.50;;;1.15;;
7645;SDS011;3864;48.180;14.178;2023-10-31T06:38:28;1.05;;;0.90;;
7645;SDS011;3864;48.180;14.178;2023-10-31T06:40:55;2.45;;;1.27;;
7645;SDS011;3864;48.180;14.178;2023-10-31T06:43:22;1.15;;;0.82;;
7645;SDS011;3864;48.180;14.178;2023-10-31T06:45:49;2.35;;;1.02;;
7645;SDS011;3864;48.180;14.178;2023-10-31T06:48:16;1.65;;;1.08;;
7645;SDS011;3864;48.180;14.178;2023-10-31T06:50:43;1.90;;;1.20;;
7645;SDS011;3864;48.180;14.178;2023-10-31T06:53:10;2.47;;;1.10;;
7645;SDS011;3864;48.180;14.178;2023-10-31T06:55:38;1.25;;;1.00;;
7645;SDS011;3864;48.180;14.178;2023-10-31T06:58:05;1.77;;;1.08;;
7645;SDS011;3864;48.180;14.178;2023-10-31T07:00:32;1.40;;;0.98;;
7645;SDS011;3864;48.180;14.178;2023-10-31T07:02:59;0.93;;;0.90;;
7645;SDS011;3864;48.180;14.178;2023-10-31T07:05:31;1.13;;;0.80;;
7645;SDS011;3864;48.180;14.178;2023-10-31T07:07:58;1.00;;;0.88;;
7645;SDS011;3864;48.180;14.178;2023-10-31T07:10:25;3.35;;;1.83;;
7645;SDS011;3864;48.180;14.178;2023-10-31T07:12:53;2.20;;;1.10;;
7645;SDS011;3864;48.180;14.178;2023-10-31T07:15:20;1.80;;;0.85;;
7645;SDS011;3864;48.180;14.178;2023-10-31T07:17:47;1.08;;;0.82;;
7645;SDS011;3864;48.180;14.178;2023-10-31T07:20:14;3.03;;;0.90;;
7645;SDS011;3864;48.180;14.178;2023-10-31T07:22:42;1.45;;;1.00;;
7645;SDS011;3864;48.180;14.178;2023-10-31T07:25:09;1.10;;;1.00;;
7645;SDS011;3864;48.180;14.178;2023-10-31T07:27:36;1.02;;;0.93;;
7645;SDS011;3864;48.180;14.178;2023-10-31T07:30:05;2.72;;;0.98;;
7645;SDS011;3864;48.180;14.178;2023-10-31T07:32:33;1.20;;;0.70;;
7645;SDS011;3864;48.180;14.178;2023-10-31T07:35:00;1.60;;;1.08;;
7645;SDS011;3864;48.180;14.178;2023-10-31T07:37:27;1.20;;;0.85;;
7645;SDS011;3864;48.180;14.178;2023-10-31T07:39:54;1.60;;;1.30;;
7645;SDS011;3864;48.180;14.178;2023-10-31T07:42:21;1.17;;;1.05;;
7645;SDS011;3864;48.180;14.178;2023-10-31T07:44:48;1.42;;;1.10;;
7645;SDS011;3864;48.180;14.178;2023-10-31T07:47:17;1.73;;;1.10;;
7645;SDS011;3864;48.180;14.178;2023-10-31T07:49:44;2.25;;;1.15;;
7645;SDS011;3864;48.180;14.178;2023-10-31T07:52:13;1.83;;;0.93;;
7645;SDS011;3864;48.180;14.178;2023-10-31T07:54:40;1.08;;;0.90;;
7645;SDS011;3864;48.180;14.178;2023-10-31T07:57:07;2.63;;;1.30;;
7645;SDS011;3864;48.180;14.178;2023-10-31T07:59:34;2.53;;;1.40;;
7645;SDS011;3864;48.180;14.178;2023-10-31T08:02:01;1.25;;;0.82;;
7645;SDS011;3864;48.180;14.178;2023-10-31T08:04:30;1.30;;;1.00;;
7645;SDS011;3864;48.180;14.178;2023-10-31T08:06:57;1.23;;;1.13;;
7645;SDS011;3864;48.180;14.178;2023-10-31T08:09:24;1.45;;;1.02;;
7645;SDS011;3864;48.180;14.178;2023-10-31T08:11:51;1.45;;;1.10;;
7645;SDS011;3864;48.180;14.178;2023-10-31T08:14:19;1.33;;;0.88;;
7645;SDS011;3864;48.180;14.178;2023-10-31T08:16:47;1.17;;;0.90;;
7645;SDS011;3864;48.180;14.178;2023-10-31T08:19:14;1.45;;;1.00;;
7645;SDS011;3864;48.180;14.178;2023-10-31T08:21:43;1.05;;;0.90;;
7645;SDS011;3864;48.180;14.178;2023-10-31T08:24:10;1.70;;;1.00;;
7645;SDS011;3864;48.180;14.178;2023-10-31T08:26:38;1.27;;;0.90;;
7645;SDS011;3864;48.180;14.178;2023-10-31T08:29:05;1.40;;;0.82;;
7645;SDS011;3864;48.180;14.178;2023-10-31T08:31:32;1.23;;;1.13;;
7645;SDS011;3864;48.180;14.178;2023-10-31T08:33:59;1.48;;;1.00;;
7645;SDS011;3864;48.180;14.178;2023-10-31T08:36:26;1.48;;;0.93;;
7645;SDS011;3864;48.180;14.178;2023-10-31T08:38:55;1.48;;;0.88;;
7645;SDS011;3864;48.180;14.178;2023-10-31T08:41:23;3.00;;;1.60;;
7645;SDS011;3864;48.180;14.178;2023-10-31T08:43:50;1.60;;;1.02;;
7645;SDS011;3864;48.180;14.178;2023-10-31T08:46:17;1.55;;;1.02;;
7645;SDS011;3864;48.180;14.178;2023-10-31T08:48:44;1.58;;;1.10;;
7645;SDS011;3864;48.180;14.178;2023-10-31T08:51:11;2.30;;;1.10;;
7645;SDS011;3864;48.180;14.178;2023-10-31T08:53:38;2.58;;;1.00;;
7645;SDS011;3864;48.180;14.178;2023-10-31T08:56:08;3.03;;;1.30;;
7645;SDS011;3864;48.180;14.178;2023-10-31T08:58:35;1.30;;;1.10;;
7645;SDS011;3864;48.180;14.178;2023-10-31T09:01:02;1.88;;;1.10;;
7645;SDS011;3864;48.180;14.178;2023-10-31T09:03:29;2.00;;;1.23;;
7645;SDS011;3864;48.180;14.178;2023-10-31T09:05:56;2.25;;;1.35;;
7645;SDS011;3864;48.180;14.178;2023-10-31T09:08:23;3.28;;;1.50;;
7645;SDS011;3864;48.180;14.178;2023-10-31T09:10:50;2.30;;;1.50;;
7645;SDS011;3864;48.180;14.178;2023-10-31T09:13:19;5.32;;;1.70;;
7645;SDS011;3864;48.180;14.178;2023-10-31T09:15:47;2.63;;;1.40;;
7645;SDS011;3864;48.180;14.178;2023-10-31T09:18:15;2.03;;;1.42;;
7645;SDS011;3864;48.180;14.178;2023-10-31T09:20:42;2.25;;;1.50;;
7645;SDS011;3864;48.180;14.178;2023-10-31T09:23:09;2.38;;;1.50;;
7645;SDS011;3864;48.180;14.178;2023-10-31T09:25:36;1.73;;;1.20;;
7645;SDS011;3864;48.180;14.178;2023-10-31T09:28:04;2.38;;;1.40;;
7645;SDS011;3864;48.180;14.178;2023-10-31T09:30:32;2.15;;;1.50;;
7645;SDS011;3864;48.180;14.178;2023-10-31T09:32:59;1.92;;;1.30;;
7645;SDS011;3864;48.180;14.178;2023-10-31T09:35:26;2.38;;;1.42;;
7645;SDS011;3864;48.180;14.178;2023-10-31T09:37:54;2.00;;;1.45;;
7645;SDS011;3864;48.180;14.178;2023-10-31T09:40:21;2.72;;;1.40;;
7645;SDS011;3864;48.180;14.178;2023-10-31T09:42:48;2.08;;;1.27;;
7645;SDS011;3864;48.180;14.178;2023-10-31T09:45:16;10.13;;;1.98;;
7645;SDS011;3864;48.180;14.178;2023-10-31T09:47:45;2.58;;;1.30;;
7645;SDS011;3864;48.180;14.178;2023-10-31T09:50:12;3.40;;;1.30;;
7645;SDS011;3864;48.180;14.178;2023-10-31T09:52:39;2.22;;;1.30;;
7645;SDS011;3864;48.180;14.178;2023-10-31T09:55:07;2.33;;;1.40;;
7645;SDS011;3864;48.180;14.178;2023-10-31T09:57:34;2.22;;;1.50;;
7645;SDS011;3864;48.180;14.178;2023-10-31T10:00:02;2.95;;;1.75;;
7645;SDS011;3864;48.180;14.178;2023-10-31T10:02:30;2.85;;;1.50;;
7645;SDS011;3864;48.180;14.178;2023-10-31T10:04:58;2.85;;;1.60;;
7645;SDS011;3864;48.180;14.178;2023-10-31T10:07:25;2.67;;;1.80;;
7645;SDS011;3864;48.180;14.178;2023-10-31T10:09:53;3.85;;;1.80;;
7645;SDS011;3864;48.180;14.178;2023-10-31T10:12:24;2.50;;;1.70;;
7645;SDS011;3864;48.180;14.178;2023-10-31T10:14:51;3.63;;;1.90;;
7645;SDS011;3864;48.180;14.178;2023-10-31T10:17:20;2.78;;;1.70;;
7645;SDS011;3864;48.180;14.178;2023-10-31T10:19:50;2.75;;;1.50;;
7645;SDS011;3864;48.180;14.178;2023-10-31T10:22:37;4.45;;;1.75;;
7645;SDS011;3864;48.180;14.178;2023-10-31T10:25:05;2.65;;;1.63;;
7645;SDS011;3864;48.180;14.178;2023-10-31T10:27:33;2.75;;;1.50;;
7645;SDS011;3864;48.180;14.178;2023-10-31T10:30:06;2.95;;;1.60;;
7645;SDS011;3864;48.180;14.178;2023-10-31T10:32:35;2.35;;;1.48;;
7645;SDS011;3864;48.180;14.178;2023-10-31T10:35:02;3.42;;;1.50;;
7645;SDS011;3864;48.180;14.178;2023-10-31T10:37:31;3.40;;;1.70;;
7645;SDS011;3864;48.180;14.178;2023-10-31T10:40:00;6.38;;;2.58;;
7645;SDS011;3864;48.180;14.178;2023-10-31T10:42:30;2.60;;;1.70;;
7645;SDS011;3864;48.180;14.178;2023-10-31T10:45:01;3.65;;;1.75;;
7645;SDS011;3864;48.180;14.178;2023-10-31T10:47:29;2.95;;;1.65;;
7645;SDS011;3864;48.180;14.178;2023-10-31T10:49:59;3.33;;;1.60;;
7645;SDS011;3864;48.180;14.178;2023-10-31T10:52:28;2.30;;;1.60;;
7645;SDS011;3864;48.180;14.178;2023-10-31T10:55:03;2.60;;;1.70;;
7645;SDS011;3864;48.180;14.178;2023-10-31T10:57:35;2.78;;;1.80;;
7645;SDS011;3864;48.180;14.178;2023-10-31T11:00:05;3.15;;;1.83;;
7645;SDS011;3864;48.180;14.178;2023-10-31T11:02:38;2.70;;;1.60;;
7645;SDS011;3864;48.180;14.178;2023-10-31T11:05:07;2.85;;;1.77;;
7645;SDS011;3864;48.180;14.178;2023-10-31T11:07:37;2.92;;;1.60;;
7645;SDS011;3864;48.180;14.178;2023-10-31T11:10:06;3.08;;;1.73;;
7645;SDS011;3864;48.180;14.178;2023-10-31T11:12:35;4.00;;;2.08;;
7645;SDS011;3864;48.180;14.178;2023-10-31T11:15:04;3.28;;;1.83;;
7645;SDS011;3864;48.180;14.178;2023-10-31T11:17:33;3.38;;;2.10;;
7645;SDS011;3864;48.180;14.178;2023-10-31T11:20:04;2.80;;;1.75;;
7645;SDS011;3864;48.180;14.178;2023-10-31T11:25:22;2.80;;;1.83;;
7645;SDS011;3864;48.180;14.178;2023-10-31T11:27:50;5.20;;;1.83;;
7645;SDS011;3864;48.180;14.178;2023-10-31T11:30:20;2.97;;;1.88;;
7645;SDS011;3864;48.180;14.178;2023-10-31T11:32:48;2.78;;;1.80;;
7645;SDS011;3864;48.180;14.178;2023-10-31T11:35:17;2.95;;;1.90;;
7645;SDS011;3864;48.180;14.178;2023-10-31T11:37:47;4.78;;;2.10;;
7645;SDS011;3864;48.180;14.178;2023-10-31T11:40:17;3.85;;;1.90;;
7645;SDS011;3864;48.180;14.178;2023-10-31T11:42:49;4.68;;;2.25;;
7645;SDS011;3864;48.180;14.178;2023-10-31T11:45:26;3.55;;;2.00;;
7645;SDS011;3864;48.180;14.178;2023-10-31T11:47:53;3.80;;;1.77;;
7645;SDS011;3864;48.180;14.178;2023-10-31T11:50:21;3.67;;;2.35;;
7645;SDS011;3864;48.180;14.178;2023-10-31T11:52:58;4.07;;;2.17;;
7645;SDS011;3864;48.180;14.178;2023-10-31T11:55:28;3.70;;;2.40;;
7645;SDS011;3864;48.180;14.178;2023-10-31T11:57:56;4.38;;;2.80;;
7645;SDS011;3864;48.180;14.178;2023-10-31T12:00:23;7.32;;;3.58;;
7645;SDS011;3864;48.180;14.178;2023-10-31T12:02:57;4.10;;;2.08;;
7645;SDS011;3864;48.180;14.178;2023-10-31T12:05:25;3.33;;;1.95;;
7645;SDS011;3864;48.180;14.178;2023-10-31T12:07:52;2.90;;;1.80;;
7645;SDS011;3864;48.180;14.178;2023-10-31T12:10:24;2.75;;;1.60;;
7645;SDS011;3864;48.180;14.178;2023-10-31T12:12:57;2.50;;;1.75;;
7645;SDS011;3864;48.180;14.178;2023-10-31T12:15:24;2.05;;;1.42;;
7645;SDS011;3864;48.180;14.178;2023-10-31T12:17:51;3.40;;;2.05;;
7645;SDS011;3864;48.180;14.178;2023-10-31T12:20:23;2.63;;;1.50;;
7645;SDS011;3864;48.180;14.178;2023-10-31T12:23:00;2.30;;;1.40;;
7645;SDS011;3864;48.180;14.178;2023-10-31T12:25:28;2.40;;;1.30;;
7645;SDS011;3864;48.180;14.178;2023-10-31T12:27:59;2.40;;;1.50;;
7645;SDS011;3864;48.180;14.178;2023-10-31T12:30:26;1.60;;;1.20;;
7645;SDS011;3864;48.180;14.178;2023-10-31T12:32:53;3.25;;;1.60;;
7645;SDS011;3864;48.180;14.178;2023-10-31T12:35:22;2.08;;;1.30;;
7645;SDS011;3864;48.180;14.178;2023-10-31T12:37:50;2.75;;;1.60;;
7645;SDS011;3864;48.180;14.178;2023-10-31T12:40:19;2.47;;;1.50;;
7645;SDS011;3864;48.180;14.178;2023-10-31T12:42:47;2.22;;;1.70;;
7645;SDS011;3864;48.180;14.178;2023-10-31T12:45:17;2.40;;;1.20;;
7645;SDS011;3864;48.180;14.178;2023-10-31T12:47:45;2.25;;;1.27;;
7645;SDS011;3864;48.180;14.178;2023-10-31T12:50:26;1.52;;;1.10;;
7645;SDS011;3864;48.180;14.178;2023-10-31T12:52:53;3.83;;;1.60;;
7645;SDS011;3864;48.180;14.178;2023-10-31T12:55:22;1.92;;;1.25;;
7645;SDS011;3864;48.180;14.178;2023-10-31T12:57:51;3.85;;;1.50;;
7645;SDS011;3864;48.180;14.178;2023-10-31T13:00:20;3.60;;;2.38;;
7645;SDS011;3864;48.180;14.178;2023-10-31T13:02:50;4.22;;;1.80;;
7645;SDS011;3864;48.180;14.178;2023-10-31T13:05:18;4.15;;;2.60;;
7645;SDS011;3864;48.180;14.178;2023-10-31T13:07:49;3.33;;;1.70;;
7645;SDS011;3864;48.180;14.178;2023-10-31T13:10:17;3.10;;;1.52;;
7645;SDS011;3864;48.180;14.178;2023-10-31T13:12:45;3.10;;;1.85;;
7645;SDS011;3864;48.180;14.178;2023-10-31T13:15:13;3.45;;;1.60;;
7645;SDS011;3864;48.180;14.178;2023-10-31T13:17:42;2.65;;;1.70;;
7645;SDS011;3864;48.180;14.178;2023-10-31T13:20:09;3.75;;;1.58;;
7645;SDS011;3864;48.180;14.178;2023-10-31T13:22:36;2.17;;;1.25;;
7645;SDS011;3864;48.180;14.178;2023-10-31T13:25:04;2.38;;;1.63;;
7645;SDS011;3864;48.180;14.178;2023-10-31T13:27:35;4.18;;;1.92;;
7645;SDS011;3864;48.180;14.178;2023-10-31T13:30:02;1.88;;;1.30;;
7645;SDS011;3864;48.180;14.178;2023-10-31T13:32:29;2.63;;;1.48;;
7645;SDS011;3864;48.180;14.178;2023-10-31T13:34:58;3.80;;;1.27;;
7645;SDS011;3864;48.180;14.178;2023-10-31T13:37:25;3.20;;;1.98;;
7645;SDS011;3864;48.180;14.178;2023-10-31T13:39:53;4.25;;;1.60;;
7645;SDS011;3864;48.180;14.178;2023-10-31T13:42:20;2.58;;;1.50;;
7645;SDS011;3864;48.180;14.178;2023-10-31T13:48:08;3.65;;;1.60;;
7645;SDS011;3864;48.180;14.178;2023-10-31T13:50:38;3.85;;;1.80;;
7645;SDS011;3864;48.180;14.178;2023-10-31T13:53:05;2.75;;;1.70;;
7645;SDS011;3864;48.180;14.178;2023-10-31T13:55:32;5.07;;;1.80;;
7645;SDS011;3864;48.180;14.178;2023-10-31T13:57:59;3.80;;;2.00;;
7645;SDS011;3864;48.180;14.178;2023-10-31T14:00:26;3.35;;;2.00;;
7645;SDS011;3864;48.180;14.178;2023-10-31T14:02:54;4.20;;;1.90;;
7645;SDS011;3864;48.180;14.178;2023-10-31T14:05:22;2.85;;;2.00;;
7645;SDS011;3864;48.180;14.178;2023-10-31T14:07:51;4.13;;;1.90;;
7645;SDS011;3864;48.180;14.178;2023-10-31T14:10:19;4.55;;;2.08;;
7645;SDS011;3864;48.180;14.178;2023-10-31T14:12:46;4.47;;;1.80;;
7645;SDS011;3864;48.180;14.178;2023-10-31T14:15:14;5.22;;;2.10;;
7645;SDS011;3864;48.180;14.178;2023-10-31T14:17:41;4.68;;;1.60;;
7645;SDS011;3864;48.180;14.178;2023-10-31T14:20:08;2.80;;;1.67;;
7645;SDS011;3864;48.180;14.178;2023-10-31T14:22:36;8.55;;;2.75;;
7645;SDS011;3864;48.180;14.178;2023-10-31T14:25:05;3.33;;;1.35;;
7645;SDS011;3864;48.180;14.178;2023-10-31T14:27:32;2.15;;;1.35;;
7645;SDS011;3864;48.180;14.178;2023-10-31T14:29:59;3.40;;;1.52;;
7645;SDS011;3864;48.180;14.178;2023-10-31T14:32:27;3.17;;;1.60;;
7645;SDS011;3864;48.180;14.178;2023-10-31T14:34:54;2.00;;;1.40;;
7645;SDS011;3864;48.180;14.178;2023-10-31T14:37:21;2.55;;;1.60;;
7645;SDS011;3864;48.180;14.178;2023-10-31T14:39:48;2.90;;;1.88;;
7645;SDS011;3864;48.180;14.178;2023-10-31T14:42:17;4.20;;;1.60;;
7645;SDS011;3864;48.180;14.178;2023-10-31T14:44:45;2.22;;;1.38;;
7645;SDS011;3864;48.180;14.178;2023-10-31T14:47:12;3.17;;;1.63;;
7645;SDS011;3864;48.180;14.178;2023-10-31T14:49:40;2.20;;;1.30;;
7645;SDS011;3864;48.180;14.178;2023-10-31T14:52:07;3.22;;;1.25;;
7645;SDS011;3864;48.180;14.178;2023-10-31T14:54:34;2.30;;;1.40;;
7645;SDS011;3864;48.180;14.178;2023-10-31T14:57:01;2.35;;;1.42;;
7645;SDS011;3864;48.180;14.178;2023-10-31T14:59:30;3.70;;;1.60;;
7645;SDS011;3864;48.180;14.178;2023-10-31T15:01:58;3.30;;;1.35;;
7645;SDS011;3864;48.180;14.178;2023-10-31T15:04:25;2.28;;;2.05;;
7645;SDS011;3864;48.180;14.178;2023-10-31T15:06:52;3.35;;;1.50;;
7645;SDS011;3864;48.180;14.178;2023-10-31T15:09:19;5.50;;;1.90;;
7645;SDS011;3864;48.180;14.178;2023-10-31T15:11:47;2.38;;;1.70;;